createdAt,value
2022-10-13T00:00:50.568Z,10.17
2022-10-13T00:01:50.482Z,10.13
2022-10-13T00:02:50.903Z,10.14
2022-10-13T00:03:50.469Z,10.15
2022-10-13T00:04:50.490Z,10.17
2022-10-13T00:05:50.434Z,10.17
2022-10-13T00:06:50.500Z,10.18
2022-10-13T00:07:50.871Z,10.21
2022-10-13T00:08:50.481Z,10.22
2022-10-13T00:09:53.512Z,10.21
2022-10-13T00:10:50.810Z,10.19
2022-10-13T00:11:50.576Z,10.18
2022-10-13T00:12:50.792Z,10.18
2022-10-13T00:13:50.572Z,10.22
2022-10-13T00:14:50.485Z,10.26
2022-10-13T00:15:50.475Z,10.27
2022-10-13T00:16:50.464Z,10.29
2022-10-13T00:17:50.819Z,10.27
2022-10-13T00:18:50.399Z,10.25
2022-10-13T00:19:50.465Z,10.26
2022-10-13T00:20:53.425Z,10.26
2022-10-13T00:21:50.391Z,10.26
2022-10-13T00:22:50.789Z,10.27
2022-10-13T00:23:50.481Z,10.23
2022-10-13T00:24:50.501Z,10.19
2022-10-13T00:25:50.823Z,10.14
2022-10-13T00:26:50.503Z,10.13
2022-10-13T00:27:50.826Z,10.14
2022-10-13T00:28:52.765Z,10.14
2022-10-13T00:29:50.477Z,10.14
2022-10-13T00:30:50.403Z,10.18
2022-10-13T00:31:53.447Z,10.21
2022-10-13T00:32:50.751Z,10.22
2022-10-13T00:33:50.528Z,10.23
2022-10-13T00:34:50.484Z,10.27
2022-10-13T00:35:50.592Z,10.33
2022-10-13T00:36:50.592Z,10.39
2022-10-13T00:37:50.765Z,10.43
2022-10-13T00:38:50.395Z,10.45
2022-10-13T00:39:50.383Z,10.44
2022-10-13T00:40:53.235Z,10.45
2022-10-13T00:41:50.503Z,10.47
2022-10-13T00:42:56.437Z,10.54
2022-10-13T00:43:50.452Z,10.55
2022-10-13T00:44:50.399Z,10.59
2022-10-13T00:45:50.378Z,10.63
2022-10-13T00:46:50.499Z,10.65
2022-10-13T00:47:50.749Z,10.66
2022-10-13T00:48:50.379Z,10.67
2022-10-13T00:49:50.538Z,10.66
2022-10-13T00:50:50.561Z,10.64
2022-10-13T00:51:50.437Z,10.64
2022-10-13T00:52:50.825Z,10.64
2022-10-13T00:53:50.509Z,10.63
2022-10-13T00:54:50.391Z,10.6
2022-10-13T00:55:50.487Z,10.58
2022-10-13T00:56:50.823Z,10.54
2022-10-13T00:57:50.792Z,10.51
2022-10-13T00:58:53.565Z,10.49
2022-10-13T00:59:50.627Z,10.47
2022-10-13T01:00:50.610Z,10.46
2022-10-13T01:01:50.495Z,10.45
2022-10-13T01:02:50.865Z,10.41
2022-10-13T01:03:50.454Z,10.39
2022-10-13T01:04:50.386Z,10.37
2022-10-13T01:05:50.400Z,10.34
2022-10-13T01:06:50.402Z,10.32
2022-10-13T01:07:50.754Z,10.31
2022-10-13T01:08:50.552Z,10.3
2022-10-13T01:09:53.429Z,10.3
2022-10-13T01:10:50.510Z,10.3
2022-10-13T01:11:50.821Z,10.3
2022-10-13T01:12:50.750Z,10.28
2022-10-13T01:13:50.472Z,10.27
2022-10-13T01:14:50.419Z,10.26
2022-10-13T01:15:50.409Z,10.23
2022-10-13T01:16:50.418Z,10.25
2022-10-13T01:17:50.870Z,10.25
2022-10-13T01:18:50.574Z,10.25
2022-10-13T01:19:50.530Z,10.25
2022-10-13T01:20:53.544Z,10.29
2022-10-13T01:21:50.610Z,10.32
2022-10-13T01:22:50.873Z,10.36
2022-10-13T01:23:50.462Z,10.41
2022-10-13T01:24:50.393Z,10.45
2022-10-13T01:25:50.370Z,10.48
2022-10-13T01:26:50.746Z,10.5
2022-10-13T01:27:50.919Z,10.5
2022-10-13T01:28:50.536Z,10.48
2022-10-13T01:29:50.438Z,10.51
2022-10-13T01:30:50.432Z,10.52
2022-10-13T01:31:53.462Z,10.5
2022-10-13T01:32:50.778Z,10.49
2022-10-13T01:33:50.387Z,10.51
2022-10-13T01:34:50.532Z,10.46
2022-10-13T01:35:50.527Z,10.39
2022-10-13T01:36:50.482Z,10.34
2022-10-13T01:37:50.761Z,10.31
2022-10-13T01:38:50.388Z,10.3
2022-10-13T01:39:50.375Z,10.3
2022-10-13T01:40:50.509Z,10.29
2022-10-13T01:41:50.863Z,10.28
2022-10-13T01:42:56.484Z,10.31
2022-10-13T01:43:50.492Z,10.31
2022-10-13T01:44:50.537Z,10.3
2022-10-13T01:45:50.463Z,10.31
2022-10-13T01:46:50.508Z,10.33
2022-10-13T01:47:50.755Z,10.33
2022-10-13T01:48:50.387Z,10.34
2022-10-13T01:49:50.379Z,10.35
2022-10-13T01:50:50.380Z,10.34
2022-10-13T01:51:50.398Z,10.34
2022-10-13T01:52:50.830Z,10.35
2022-10-13T01:53:53.486Z,10.41
2022-10-13T01:54:50.617Z,10.42
2022-10-13T01:55:50.560Z,10.44
2022-10-13T01:56:50.874Z,10.47
2022-10-13T01:57:50.750Z,10.49
2022-10-13T01:58:50.571Z,10.51
2022-10-13T01:59:50.407Z,10.53
2022-10-13T02:00:50.497Z,10.55
2022-10-13T02:01:50.574Z,10.56
2022-10-13T02:02:51.047Z,10.57
2022-10-13T02:03:50.518Z,10.58
2022-10-13T02:04:53.549Z,10.59
2022-10-13T02:05:50.573Z,10.59
2022-10-13T02:06:50.540Z,10.59
2022-10-13T02:07:50.752Z,10.6
2022-10-13T02:08:50.600Z,10.62
2022-10-13T02:09:50.515Z,10.62
2022-10-13T02:10:50.398Z,10.61
2022-10-13T02:11:50.751Z,10.64
2022-10-13T02:12:50.748Z,10.65
2022-10-13T02:13:50.395Z,10.66
2022-10-13T02:14:50.398Z,10.69
2022-10-13T02:15:53.386Z,10.7
2022-10-13T02:16:50.564Z,10.74
2022-10-13T02:17:50.790Z,10.71
2022-10-13T02:18:50.475Z,10.71
2022-10-13T02:19:50.500Z,10.7
2022-10-13T02:20:50.501Z,10.68
2022-10-13T02:21:50.496Z,10.69
2022-10-13T02:22:50.864Z,10.68
2022-10-13T02:23:50.462Z,10.66
2022-10-13T02:24:50.380Z,10.65
2022-10-13T02:25:50.577Z,10.65
2022-10-13T02:26:56.523Z,10.67
2022-10-13T02:27:50.752Z,10.7
2022-10-13T02:28:50.625Z,10.73
2022-10-13T02:29:50.536Z,10.74
2022-10-13T02:30:50.545Z,10.73
2022-10-13T02:31:50.534Z,10.74
2022-10-13T02:32:50.775Z,10.74
2022-10-13T02:33:50.399Z,10.74
2022-10-13T02:34:50.383Z,10.77
2022-10-13T02:35:50.472Z,10.77
2022-10-13T02:36:50.391Z,10.78
2022-10-13T02:37:53.840Z,10.79
2022-10-13T02:38:50.461Z,10.75
2022-10-13T02:39:50.408Z,10.75
2022-10-13T02:40:50.531Z,10.71
2022-10-13T02:41:50.757Z,10.69
2022-10-13T02:42:50.818Z,10.66
2022-10-13T02:43:50.514Z,10.66
2022-10-13T02:44:50.553Z,10.64
2022-10-13T02:45:50.568Z,10.65
2022-10-13T02:46:50.506Z,10.73
2022-10-13T02:47:50.794Z,10.67
2022-10-13T02:48:53.408Z,10.64
2022-10-13T02:49:50.595Z,10.62
2022-10-13T02:50:50.595Z,10.64
2022-10-13T02:51:50.616Z,10.62
2022-10-13T02:52:50.751Z,10.59
2022-10-13T02:53:50.471Z,10.57
2022-10-13T02:54:50.377Z,10.56
2022-10-13T02:55:50.463Z,10.56
2022-10-13T02:56:50.784Z,10.56
2022-10-13T02:57:50.857Z,10.53
2022-10-13T02:58:50.380Z,10.52
2022-10-13T02:59:53.469Z,10.49
2022-10-13T03:00:50.504Z,10.49
2022-10-13T03:01:50.399Z,10.48
2022-10-13T03:02:50.822Z,10.45
2022-10-13T03:03:50.579Z,10.42
2022-10-13T03:04:50.538Z,10.4
2022-10-13T03:05:50.504Z,10.37
2022-10-13T03:06:50.500Z,10.36
2022-10-13T03:07:50.797Z,10.34
2022-10-13T03:08:50.509Z,10.33
2022-10-13T03:09:50.391Z,10.33
2022-10-13T03:10:53.457Z,10.34
2022-10-13T03:11:50.767Z,10.31
2022-10-13T03:12:50.756Z,10.27
2022-10-13T03:13:50.594Z,10.24
2022-10-13T03:14:50.579Z,10.23
2022-10-13T03:15:50.518Z,10.2
2022-10-13T03:16:50.401Z,10.19
2022-10-13T03:17:50.779Z,10.17
2022-10-13T03:18:50.499Z,10.15
2022-10-13T03:19:50.410Z,10.12
2022-10-13T03:20:50.518Z,10.09
2022-10-13T03:21:53.403Z,10.07
2022-10-13T03:22:50.881Z,10.06
2022-10-13T03:23:50.474Z,10.03
2022-10-13T03:24:50.405Z,10.01
2022-10-13T03:25:50.537Z,9.99
2022-10-13T03:26:50.755Z,9.98
2022-10-13T03:27:50.744Z,9.98
2022-10-13T03:28:50.597Z,9.98
2022-10-13T03:29:50.461Z,9.99
2022-10-13T03:30:50.413Z,10
2022-10-13T03:31:50.387Z,10
2022-10-13T03:32:56.488Z,10
2022-10-13T03:33:50.470Z,10.04
2022-10-13T03:34:50.501Z,10.02
2022-10-13T03:35:50.503Z,10.02
2022-10-13T03:36:50.584Z,10.03
2022-10-13T03:37:50.817Z,10.03
2022-10-13T03:38:50.378Z,10.05
2022-10-13T03:39:50.557Z,10.04
2022-10-13T03:40:50.383Z,10.02
2022-10-13T03:41:50.751Z,10.03
2022-10-13T03:42:50.918Z,10.02
2022-10-13T03:43:53.459Z,10.04
2022-10-13T03:44:55.928Z,10.05
2022-10-13T03:45:50.392Z,10.05
2022-10-13T03:46:50.468Z,10.09
2022-10-13T03:47:51.597Z,10.11
2022-10-13T03:48:50.578Z,10.11
2022-10-13T03:49:50.466Z,10.15
2022-10-13T03:50:50.524Z,10.15
2022-10-13T03:51:50.578Z,10.12
2022-10-13T03:52:50.773Z,10.13
2022-10-13T03:53:50.491Z,10.13
2022-10-13T03:54:53.507Z,10.15
2022-10-13T03:55:50.810Z,10.14
2022-10-13T03:56:50.812Z,10.13
2022-10-13T03:57:50.583Z,10.14
2022-10-13T03:58:50.495Z,10.13
2022-10-13T03:59:50.568Z,10.11
2022-10-13T04:00:50.761Z,10.12
2022-10-13T04:01:50.521Z,10.16
2022-10-13T04:02:50.579Z,10.21
2022-10-13T04:03:50.401Z,10.24
2022-10-13T04:04:50.401Z,10.25
2022-10-13T04:05:56.412Z,10.21
2022-10-13T04:06:50.478Z,10.23
2022-10-13T04:07:50.515Z,10.25
2022-10-13T04:08:50.406Z,10.27
2022-10-13T04:09:50.835Z,10.28
2022-10-13T04:10:50.761Z,10.29
2022-10-13T04:11:50.506Z,10.3
2022-10-13T04:12:50.404Z,10.32
2022-10-13T04:13:50.518Z,10.43
2022-10-13T04:14:50.549Z,10.47
2022-10-13T04:15:50.877Z,10.52
2022-10-13T04:16:53.488Z,10.58
2022-10-13T04:17:50.589Z,10.63
2022-10-13T04:18:50.469Z,10.65
2022-10-13T04:19:50.479Z,10.64
2022-10-13T04:20:50.801Z,10.67
2022-10-13T04:21:50.574Z,10.65
2022-10-13T04:22:50.498Z,10.65
2022-10-13T04:23:50.381Z,10.61
2022-10-13T04:24:51.018Z,10.61
2022-10-13T04:25:50.761Z,10.64
2022-10-13T04:26:50.368Z,10.66
2022-10-13T04:27:53.382Z,10.68
2022-10-13T04:28:50.557Z,10.68
2022-10-13T04:29:50.395Z,10.68
2022-10-13T04:30:50.761Z,10.69
2022-10-13T04:31:50.482Z,10.7
2022-10-13T04:32:50.494Z,10.69
2022-10-13T04:33:50.514Z,10.68
2022-10-13T04:34:50.424Z,10.68
2022-10-13T04:35:50.833Z,10.67
2022-10-13T04:36:50.491Z,10.66
2022-10-13T04:37:50.398Z,10.63
2022-10-13T04:38:50.525Z,10.61
2022-10-13T04:39:50.834Z,10.59
2022-10-13T04:40:51.613Z,10.56
2022-10-13T04:41:50.567Z,10.56
2022-10-13T04:42:50.457Z,10.56
2022-10-13T04:43:53.436Z,10.57
2022-10-13T04:44:50.512Z,10.55
2022-10-13T04:45:50.828Z,10.52
2022-10-13T04:46:50.398Z,10.52
2022-10-13T04:47:50.379Z,10.5
2022-10-13T04:48:50.390Z,10.52
2022-10-13T04:49:50.405Z,10.51
2022-10-13T04:50:50.807Z,10.47
2022-10-13T04:51:50.482Z,10.43
2022-10-13T04:52:50.379Z,10.4
2022-10-13T04:53:50.389Z,10.4
2022-10-13T04:54:56.457Z,10.4
2022-10-13T04:55:50.765Z,10.38
2022-10-13T04:56:50.604Z,10.4
2022-10-13T04:57:50.577Z,10.43
2022-10-13T04:58:50.510Z,10.49
2022-10-13T04:59:50.554Z,10.49
2022-10-13T05:00:50.886Z,10.5
2022-10-13T05:01:50.469Z,10.5
2022-10-13T05:02:50.458Z,10.46
2022-10-13T05:03:50.497Z,10.44
2022-10-13T05:04:50.503Z,10.44
2022-10-13T05:05:58.009Z,10.44
2022-10-13T05:07:15.858Z,10.43
2022-10-13T05:07:50.605Z,10.41
2022-10-13T05:08:50.402Z,10.4
2022-10-13T05:09:50.845Z,10.33
2022-10-13T05:10:50.765Z,10.27
2022-10-13T05:11:50.388Z,10.23
2022-10-13T05:12:50.400Z,10.22
2022-10-13T05:13:50.397Z,10.18
2022-10-13T05:14:50.399Z,10.2
2022-10-13T05:15:50.871Z,10.18
2022-10-13T05:16:53.338Z,10.19
2022-10-13T05:17:50.394Z,10.19
2022-10-13T05:18:50.510Z,10.17
2022-10-13T05:19:50.466Z,10.17
2022-10-13T05:20:50.841Z,10.15
2022-10-13T05:21:50.499Z,10.09
2022-10-13T05:22:50.425Z,10.05
2022-10-13T05:23:50.404Z,10.03
2022-10-13T05:24:50.836Z,10
2022-10-13T05:25:50.768Z,10.02
2022-10-13T05:26:50.600Z,10.03
2022-10-13T05:27:53.514Z,9.99
2022-10-13T05:28:50.497Z,10
2022-10-13T05:29:50.539Z,10.06
2022-10-13T05:30:50.761Z,10.06
2022-10-13T05:31:50.612Z,10.08
2022-10-13T05:32:53.894Z,10.1
2022-10-13T05:33:50.452Z,10.12
2022-10-13T05:34:50.378Z,10.12
2022-10-13T05:35:50.806Z,10.14
2022-10-13T05:36:50.396Z,10.16
2022-10-13T05:37:50.568Z,10.16
2022-10-13T05:38:50.396Z,10.17
2022-10-13T05:39:50.831Z,10.18
2022-10-13T05:40:50.808Z,10.16
2022-10-13T05:41:50.574Z,10.18
2022-10-13T05:42:50.567Z,10.22
2022-10-13T05:43:53.415Z,10.26
2022-10-13T05:44:50.569Z,10.26
2022-10-13T05:45:50.834Z,10.29
2022-10-13T05:46:50.601Z,10.33
2022-10-13T05:47:50.493Z,10.34
2022-10-13T05:48:50.400Z,10.36
2022-10-13T05:49:50.429Z,10.38
2022-10-13T05:50:50.834Z,10.41
2022-10-13T05:51:50.573Z,10.39
2022-10-13T05:52:50.531Z,10.39
2022-10-13T05:53:54.099Z,10.36
2022-10-13T05:54:56.465Z,10.35
2022-10-13T05:55:50.880Z,10.33
2022-10-13T05:56:50.384Z,10.28
2022-10-13T05:57:50.392Z,10.25
2022-10-13T05:58:50.379Z,10.23
2022-10-13T05:59:50.493Z,10.25
2022-10-13T06:00:50.771Z,10.25
2022-10-13T06:01:50.404Z,10.25
2022-10-13T06:02:50.547Z,10.26
2022-10-13T06:03:50.401Z,10.28
2022-10-13T06:04:50.482Z,10.29
2022-10-13T06:05:56.400Z,10.27
2022-10-13T06:06:50.561Z,10.28
2022-10-13T06:07:50.505Z,10.33
2022-10-13T06:08:50.449Z,10.35
2022-10-13T06:09:50.842Z,10.38
2022-10-13T06:10:50.815Z,10.4
2022-10-13T06:11:50.388Z,10.43
2022-10-13T06:12:50.480Z,10.45
2022-10-13T06:13:50.559Z,10.47
2022-10-13T06:14:50.500Z,10.47
2022-10-13T06:15:50.840Z,10.52
2022-10-13T06:16:53.566Z,10.54
2022-10-13T06:17:50.502Z,10.57
2022-10-13T06:18:50.405Z,10.63
2022-10-13T06:19:50.492Z,10.67
2022-10-13T06:20:50.792Z,10.71
2022-10-13T06:21:50.487Z,10.71
2022-10-13T06:22:50.380Z,10.7
2022-10-13T06:23:50.381Z,10.72
2022-10-13T06:24:50.841Z,10.71
2022-10-13T06:25:50.766Z,10.74
2022-10-13T06:26:50.528Z,10.75
2022-10-13T06:27:53.500Z,10.78
2022-10-13T06:28:53.398Z,10.81
2022-10-13T06:29:50.469Z,10.82
2022-10-13T06:30:50.834Z,10.83
2022-10-13T06:31:50.611Z,10.8
2022-10-13T06:32:50.581Z,10.79
2022-10-13T06:33:50.394Z,10.76
2022-10-13T06:34:50.495Z,10.78
2022-10-13T06:35:50.796Z,10.85
2022-10-13T06:36:50.474Z,10.93
2022-10-13T06:37:50.506Z,10.99
2022-10-13T06:38:50.400Z,11.08
2022-10-13T06:39:50.839Z,11.18
2022-10-13T06:40:50.766Z,11.25
2022-10-13T06:41:50.395Z,11.35
2022-10-13T06:42:50.357Z,11.44
2022-10-13T06:43:53.506Z,11.54
2022-10-13T06:44:50.398Z,11.59
2022-10-13T06:45:50.808Z,11.73
2022-10-13T06:46:50.510Z,11.81
2022-10-13T06:47:50.516Z,11.93
2022-10-13T06:48:50.509Z,11.98
2022-10-13T06:49:50.530Z,12.03
2022-10-13T06:50:50.842Z,12.12
2022-10-13T06:51:50.611Z,12.2
2022-10-13T06:52:50.592Z,12.29
2022-10-13T06:53:50.411Z,12.33
2022-10-13T06:54:56.518Z,12.3
2022-10-13T06:55:52.583Z,12.24
2022-10-13T06:56:50.554Z,12.25
2022-10-13T06:57:50.529Z,12.27
2022-10-13T06:58:50.569Z,12.29
2022-10-13T06:59:50.606Z,12.29
2022-10-13T07:00:50.814Z,12.33
2022-10-13T07:01:50.397Z,12.4
2022-10-13T07:02:50.396Z,12.44
2022-10-13T07:03:50.504Z,12.49
2022-10-13T07:04:50.388Z,12.51
2022-10-13T07:05:56.486Z,12.5
2022-10-13T07:06:50.477Z,12.54
2022-10-13T07:07:50.394Z,12.56
2022-10-13T07:08:50.471Z,12.58
2022-10-13T07:09:50.883Z,12.58
2022-10-13T07:10:50.767Z,12.53
2022-10-13T07:11:50.511Z,12.45
2022-10-13T07:12:50.484Z,12.44
2022-10-13T07:13:50.608Z,12.43
2022-10-13T07:14:50.477Z,12.45
2022-10-13T07:15:50.841Z,12.45
2022-10-13T07:16:53.449Z,12.44
2022-10-13T07:17:50.558Z,12.43
2022-10-13T07:18:50.468Z,12.46
2022-10-13T07:19:51.362Z,12.47
2022-10-13T07:20:50.771Z,12.44
2022-10-13T07:21:50.492Z,12.47
2022-10-13T07:22:50.523Z,12.51
2022-10-13T07:23:50.396Z,12.59
2022-10-13T07:24:50.760Z,12.67
2022-10-13T07:25:50.765Z,12.77
2022-10-13T07:26:50.388Z,12.92
2022-10-13T07:27:53.364Z,12.99
2022-10-13T07:28:50.522Z,13.14
2022-10-13T07:29:50.370Z,13.24
2022-10-13T07:30:50.945Z,13.38
2022-10-13T07:31:50.467Z,13.42
2022-10-13T07:32:50.510Z,13.52
2022-10-13T07:33:50.500Z,13.62
2022-10-13T07:34:50.504Z,13.75
2022-10-13T07:35:50.849Z,13.82
2022-10-13T07:36:50.571Z,13.85
2022-10-13T07:37:50.379Z,13.95
2022-10-13T07:38:53.433Z,13.99
2022-10-13T07:39:50.759Z,14.14
2022-10-13T07:40:50.766Z,14.34
2022-10-13T07:41:51.372Z,14.41
2022-10-13T07:42:50.589Z,14.56
2022-10-13T07:43:50.562Z,14.68
2022-10-13T07:44:50.480Z,14.76
2022-10-13T07:45:50.839Z,14.82
2022-10-13T07:46:50.578Z,14.85
2022-10-13T07:47:50.378Z,14.82
2022-10-13T07:48:50.396Z,14.73
2022-10-13T07:49:53.408Z,14.71
2022-10-13T07:50:53.715Z,14.69
2022-10-13T07:51:50.388Z,14.72
2022-10-13T07:52:50.381Z,14.7
2022-10-13T07:53:50.415Z,14.7
2022-10-13T07:54:50.769Z,14.63
2022-10-13T07:55:50.786Z,14.49
2022-10-13T07:56:50.472Z,14.41
2022-10-13T07:57:50.571Z,14.32
2022-10-13T07:58:50.493Z,14.23
2022-10-13T07:59:50.488Z,14.19
2022-10-13T08:00:56.439Z,14.14
2022-10-13T08:01:50.543Z,14.08
2022-10-13T08:02:50.563Z,14.04
2022-10-13T08:03:50.900Z,14.03
2022-10-13T08:04:50.485Z,14.05
2022-10-13T08:05:50.846Z,14.13
2022-10-13T08:06:50.530Z,14.23
2022-10-13T08:07:53.497Z,14.32
2022-10-13T08:08:50.477Z,14.41
2022-10-13T08:09:51.061Z,14.49
2022-10-13T08:10:50.795Z,14.53
2022-10-13T08:11:50.371Z,14.54
2022-10-13T08:12:50.388Z,14.64
2022-10-13T08:13:50.519Z,14.79
2022-10-13T08:14:50.515Z,14.93
2022-10-13T08:15:50.796Z,15.11
2022-10-13T08:16:53.812Z,15.12
2022-10-13T08:17:50.481Z,14.99
2022-10-13T08:18:50.369Z,14.98
2022-10-13T08:19:50.449Z,15.08
2022-10-13T08:20:50.765Z,15.2
2022-10-13T08:21:59.758Z,15.34
2022-10-13T08:22:50.502Z,15.36
2022-10-13T08:23:50.524Z,15.39
2022-10-13T08:24:50.843Z,15.38
2022-10-13T08:25:50.770Z,15.4
2022-10-13T08:26:50.460Z,15.43
2022-10-13T08:27:56.888Z,15.52
2022-10-13T08:29:09.441Z,15.53
2022-10-13T08:29:50.384Z,15.59
2022-10-13T08:30:50.977Z,15.63
2022-10-13T08:31:50.716Z,15.67
2022-10-13T08:32:50.509Z,15.63
2022-10-13T08:33:50.376Z,15.51
2022-10-13T08:34:50.395Z,15.39
2022-10-13T08:35:51.025Z,15.3
2022-10-13T08:36:50.395Z,15.2
2022-10-13T08:37:50.395Z,15.14
2022-10-13T08:38:53.406Z,15.09
2022-10-13T08:39:50.761Z,15.03
2022-10-13T08:40:50.761Z,15.01
2022-10-13T08:41:50.477Z,14.91
2022-10-13T08:42:50.388Z,14.83
2022-10-13T08:44:33.066Z,14.73
2022-10-13T08:45:21.814Z,14.65
2022-10-13T08:45:50.879Z,14.62
2022-10-13T08:46:50.559Z,14.6
2022-10-13T08:47:50.391Z,14.53
2022-10-13T08:48:50.556Z,14.59
2022-10-13T08:49:57.717Z,14.73
2022-10-13T08:50:50.765Z,14.89
2022-10-13T08:51:50.499Z,15.04
2022-10-13T08:52:50.402Z,15.23
2022-10-13T08:53:50.510Z,15.39
2022-10-13T08:54:50.769Z,15.42
2022-10-13T08:55:50.759Z,15.48
2022-10-13T08:56:50.488Z,15.53
2022-10-13T08:57:50.511Z,15.55
2022-10-13T08:58:50.487Z,15.48
2022-10-13T08:59:50.396Z,15.39
2022-10-13T09:00:56.456Z,15.4
2022-10-13T09:01:50.534Z,15.42
2022-10-13T09:02:50.504Z,15.4
2022-10-13T09:03:50.397Z,15.29
2022-10-13T09:04:50.528Z,15.24
2022-10-13T09:05:50.883Z,15.2
2022-10-13T09:06:50.490Z,15.19
2022-10-13T09:07:50.595Z,15.17
2022-10-13T09:08:50.479Z,15.03
2022-10-13T09:09:50.847Z,14.86
2022-10-13T09:10:50.759Z,14.75
2022-10-13T09:11:53.635Z,14.64
2022-10-13T09:12:50.615Z,14.6
2022-10-13T09:13:50.560Z,14.59
2022-10-13T09:14:50.489Z,14.63
2022-10-13T09:15:50.837Z,14.59
2022-10-13T09:16:50.593Z,14.65
2022-10-13T09:17:50.406Z,14.69
2022-10-13T09:18:50.492Z,14.73
2022-10-13T09:19:50.385Z,14.79
2022-10-13T09:20:50.992Z,14.82
2022-10-13T09:21:50.465Z,14.82
2022-10-13T09:22:50.399Z,14.9
2022-10-13T09:23:50.392Z,15.02
2022-10-13T09:24:50.831Z,15.05
2022-10-13T09:25:50.868Z,15.07
2022-10-13T09:26:50.591Z,15.05
2022-10-13T09:27:53.569Z,15.02
2022-10-13T09:28:50.655Z,14.89
2022-10-13T09:29:50.512Z,14.86
2022-10-13T09:30:50.767Z,14.72
2022-10-13T09:31:50.474Z,14.64
2022-10-13T09:32:50.387Z,14.58
2022-10-13T09:33:50.427Z,14.45
2022-10-13T09:34:50.392Z,14.36
2022-10-13T09:35:50.839Z,14.31
2022-10-13T09:36:50.705Z,14.28
2022-10-13T09:37:50.549Z,14.32
2022-10-13T09:38:53.438Z,14.32
2022-10-13T09:39:50.925Z,14.25
2022-10-13T09:40:50.810Z,14.21
2022-10-13T09:41:50.371Z,14.12
2022-10-13T09:42:50.399Z,14.08
2022-10-13T09:43:50.561Z,14.18
2022-10-13T09:44:50.804Z,14.28
2022-10-13T09:45:50.468Z,14.37
2022-10-13T09:46:50.372Z,14.41
2022-10-13T09:47:50.593Z,14.43
2022-10-13T09:48:50.490Z,14.39
2022-10-13T09:49:56.500Z,14.37
2022-10-13T09:50:50.484Z,14.33
2022-10-13T09:51:50.481Z,14.29
2022-10-13T09:52:50.588Z,14.31
2022-10-13T09:53:50.393Z,14.32
2022-10-13T09:54:50.762Z,14.25
2022-10-13T09:55:50.483Z,14.19
2022-10-13T09:56:50.492Z,14.15
2022-10-13T09:57:50.455Z,14.13
2022-10-13T09:58:50.385Z,14.13
2022-10-13T09:59:50.910Z,14.09
2022-10-13T10:00:53.556Z,14.07
2022-10-13T10:01:50.576Z,14.08
2022-10-13T10:02:50.530Z,14.06
2022-10-13T10:03:50.422Z,14.08
2022-10-13T10:04:50.892Z,14.18
2022-10-13T10:05:50.476Z,14.27
2022-10-13T10:06:50.427Z,14.37
2022-10-13T10:07:50.472Z,14.42
2022-10-13T10:09:02.763Z,14.41
2022-10-13T10:09:50.804Z,14.4
2022-10-13T10:10:50.515Z,14.49
2022-10-13T10:11:53.686Z,14.5
2022-10-13T10:12:50.466Z,14.49
2022-10-13T10:13:50.492Z,14.48
2022-10-13T10:14:50.762Z,14.49
2022-10-13T10:15:50.498Z,14.56
2022-10-13T10:16:50.516Z,14.65
2022-10-13T10:17:50.411Z,14.79
2022-10-13T10:18:53.853Z,14.91
2022-10-13T10:19:53.777Z,15.08
2022-10-13T10:20:50.491Z,15.23
2022-10-13T10:21:50.507Z,15.32
2022-10-13T10:22:53.588Z,15.34
2022-10-13T10:23:50.509Z,15.38
2022-10-13T10:24:50.838Z,15.41
2022-10-13T10:25:50.584Z,15.46
2022-10-13T10:26:50.408Z,15.56
2022-10-13T10:27:50.525Z,15.72
2022-10-13T10:28:50.559Z,15.9
2022-10-13T10:29:50.912Z,15.93
2022-10-13T10:30:50.427Z,15.88
2022-10-13T10:31:50.482Z,15.86
2022-10-13T10:32:50.527Z,15.84
2022-10-13T10:33:53.387Z,15.8
2022-10-13T10:34:50.767Z,15.8
2022-10-13T10:35:50.549Z,15.9
2022-10-13T10:36:50.474Z,15.97
2022-10-13T10:37:50.502Z,16.12
2022-10-13T10:38:50.391Z,16.17
2022-10-13T10:39:50.760Z,16.32
2022-10-13T10:40:50.467Z,16.47
2022-10-13T10:41:50.404Z,16.62
2022-10-13T10:42:52.340Z,16.67
2022-10-13T10:43:50.480Z,16.59
2022-10-13T10:44:56.475Z,16.53
2022-10-13T10:45:50.549Z,16.55
2022-10-13T10:46:50.506Z,16.67
2022-10-13T10:47:50.399Z,16.72
2022-10-13T10:48:50.619Z,16.77
2022-10-13T10:49:50.771Z,16.73
2022-10-13T10:50:50.380Z,16.72
2022-10-13T10:51:50.396Z,16.67
2022-10-13T10:52:50.578Z,16.63
2022-10-13T10:53:50.422Z,16.69
2022-10-13T10:54:50.835Z,16.61
2022-10-13T10:55:53.418Z,16.68
2022-10-13T10:56:50.454Z,16.7
2022-10-13T10:57:50.496Z,16.71
2022-10-13T10:58:50.461Z,16.69
2022-10-13T10:59:50.841Z,16.57
2022-10-13T11:00:50.545Z,16.63
2022-10-13T11:01:50.552Z,16.69
2022-10-13T11:02:50.503Z,16.77
2022-10-13T11:03:50.446Z,16.83
2022-10-13T11:04:50.837Z,16.98
2022-10-13T11:05:50.573Z,17.1
2022-10-13T11:06:53.588Z,17.2
2022-10-13T11:07:50.571Z,17.22
2022-10-13T11:08:50.504Z,17.2
2022-10-13T11:09:51.042Z,17.26
2022-10-13T11:10:50.398Z,17.38
2022-10-13T11:11:50.440Z,17.51
2022-10-13T11:12:50.382Z,17.62
2022-10-13T11:13:50.401Z,17.56
2022-10-13T11:14:50.882Z,17.46
2022-10-13T11:15:50.454Z,17.36
2022-10-13T11:16:50.395Z,17.28
2022-10-13T11:17:53.554Z,17.33
2022-10-13T11:18:50.552Z,17.37
2022-10-13T11:19:50.877Z,17.29
2022-10-13T11:20:50.483Z,17.18
2022-10-13T11:21:50.528Z,17.12
2022-10-13T11:22:50.614Z,17.16
2022-10-13T11:23:50.526Z,17.21
2022-10-13T11:24:50.843Z,17.33
2022-10-13T11:25:50.599Z,17.49
2022-10-13T11:26:50.492Z,17.61
2022-10-13T11:27:50.488Z,17.6
2022-10-13T11:28:53.590Z,17.48
2022-10-13T11:29:50.761Z,17.33
2022-10-13T11:30:50.685Z,17.24
2022-10-13T11:31:50.440Z,17.29
2022-10-13T11:32:50.511Z,17.26
2022-10-13T11:33:50.457Z,17.18
2022-10-13T11:34:50.759Z,17.13
2022-10-13T11:35:50.384Z,17.04
2022-10-13T11:36:50.606Z,17.1
2022-10-13T11:38:05.626Z,17.23
2022-10-13T11:38:50.544Z,17.38
2022-10-13T11:39:56.571Z,17.56
2022-10-13T11:40:50.574Z,17.74
2022-10-13T11:41:50.464Z,17.94
2022-10-13T11:42:52.344Z,17.98
2022-10-13T11:43:50.559Z,18.12
2022-10-13T11:44:50.843Z,18.19
2022-10-13T11:45:50.527Z,18.22
2022-10-13T11:46:50.383Z,18.2
2022-10-13T11:47:50.412Z,18.16
2022-10-13T11:48:50.492Z,18.16
2022-10-13T11:49:51.667Z,18.18
2022-10-13T11:50:53.423Z,18.31
2022-10-13T11:51:50.771Z,18.48
2022-10-13T11:52:50.555Z,18.56
2022-10-13T11:53:50.400Z,18.58
2022-10-13T11:54:50.758Z,18.72
2022-10-13T11:55:50.390Z,18.75
2022-10-13T11:56:50.391Z,18.68
2022-10-13T11:57:50.385Z,18.49
2022-10-13T11:58:50.477Z,18.32
2022-10-13T11:59:50.883Z,18.19
2022-10-13T12:00:50.408Z,18.14
2022-10-13T12:01:53.403Z,18.12
2022-10-13T12:02:50.549Z,18.19
2022-10-13T12:03:50.474Z,18.39
2022-10-13T12:04:50.836Z,18.51
2022-10-13T12:05:50.481Z,18.55
2022-10-13T12:06:50.493Z,18.69
2022-10-13T12:07:50.447Z,18.87
2022-10-13T12:08:50.375Z,18.76
2022-10-13T12:09:50.834Z,18.58
2022-10-13T12:10:50.480Z,18.58
2022-10-13T12:11:50.386Z,18.69
2022-10-13T12:12:53.431Z,18.65
2022-10-13T12:13:50.490Z,18.36
2022-10-13T12:14:50.882Z,18.11
2022-10-13T12:15:50.468Z,17.97
2022-10-13T12:16:50.487Z,17.89
2022-10-13T12:17:50.521Z,17.79
2022-10-13T12:18:50.394Z,17.72
2022-10-13T12:19:50.768Z,17.77
2022-10-13T12:20:50.399Z,17.74
2022-10-13T12:21:50.381Z,17.58
2022-10-13T12:22:50.654Z,17.43
2022-10-13T12:23:53.501Z,17.3
2022-10-13T12:24:50.771Z,17.26
2022-10-13T12:25:50.585Z,17.29
2022-10-13T12:26:50.598Z,17.35
2022-10-13T12:27:50.616Z,17.35
2022-10-13T12:28:50.849Z,17.35
2022-10-13T12:29:50.390Z,17.44
2022-10-13T12:30:50.394Z,17.46
2022-10-13T12:31:50.412Z,17.46
2022-10-13T12:32:50.397Z,17.44
2022-10-13T12:33:50.765Z,17.47
2022-10-13T12:34:53.475Z,17.44
2022-10-13T12:35:50.609Z,17.44
2022-10-13T12:36:50.656Z,17.41
2022-10-13T12:37:50.489Z,17.36
2022-10-13T12:38:51.095Z,17.3
2022-10-13T12:39:50.866Z,17.21
2022-10-13T12:40:50.398Z,17.12
2022-10-13T12:41:50.376Z,17.12
2022-10-13T12:42:50.404Z,17.13
2022-10-13T12:43:50.833Z,17.18
2022-10-13T12:44:50.468Z,17.17
2022-10-13T12:45:53.444Z,17.18
2022-10-13T12:46:50.580Z,17.19
2022-10-13T12:47:50.539Z,17.29
2022-10-13T12:48:50.762Z,17.41
2022-10-13T12:49:50.461Z,17.58
2022-10-13T12:50:50.538Z,17.68
2022-10-13T12:51:50.528Z,17.68
2022-10-13T12:52:50.533Z,17.66
2022-10-13T12:53:50.925Z,17.6
2022-10-13T12:54:50.763Z,17.65
2022-10-13T12:55:50.556Z,17.69